Time;durP1;ratioP1;P1;durP2;ratioP2;P2;SDS_P1;SDS_P2;PMS_P1;PMS_P2;Temp;Humidity;BMP_temperature;BMP_pressure;BME280_temperature;BME280_humidity;BME280_pressure;Samples;Min_cycle;Max_cycle;Signal;HPM_P1;HPM_P2
2021/10/26 00:00:05;;;;;;;17.80;9.63;;;10.60;99.90;;;;;;4967598;28;20046;-78
2021/10/26 00:02:31;;;;;;;14.85;10.05;;;10.50;99.90;;;;;;4986072;28;20100;-78
2021/10/26 00:04:56;;;;;;;15.95;9.70;;;10.50;99.90;;;;;;4990753;28;20058;-79
2021/10/26 00:07:22;;;;;;;15.48;10.43;;;10.40;99.90;;;;;;4958776;28;20054;-79
2021/10/26 00:09:48;;;;;;;17.10;10.00;;;10.40;99.90;;;;;;4992312;28;20375;-78
2021/10/26 00:12:13;;;;;;;11.82;8.35;;;10.50;99.90;;;;;;4985349;28;20405;-79
2021/10/26 00:14:39;;;;;;;13.77;7.45;;;10.30;99.90;;;;;;4970306;28;20155;-79
2021/10/26 00:17:05;;;;;;;10.93;7.20;;;10.30;99.90;;;;;;4970067;28;20050;-79
2021/10/26 00:19:30;;;;;;;10.18;6.97;;;10.30;99.90;;;;;;4967166;28;20050;-79
2021/10/26 00:21:56;;;;;;;10.95;7.32;;;10.20;99.90;;;;;;4968408;28;20047;-79
2021/10/26 00:24:22;;;;;;;15.27;7.63;;;10.20;99.90;;;;;;4968729;28;20414;-79
2021/10/26 00:26:49;;;;;;;13.68;9.52;;;10.20;99.90;;;;;;4966235;28;20113;-79
2021/10/26 00:29:15;;;;;;;16.83;9.48;;;10.10;99.90;;;;;;4969382;28;20053;-79
2021/10/26 00:31:41;;;;;;;14.27;9.60;;;10.10;99.90;;;;;;4971052;28;20038;-80
2021/10/26 00:34:07;;;;;;;15.00;10.07;;;10.10;99.90;;;;;;4967871;28;20061;-80
2021/10/26 00:36:33;;;;;;;16.75;10.70;;;10.10;99.90;;;;;;4955167;28;20126;-79
2021/10/26 00:38:59;;;;;;;17.88;9.65;;;10.10;99.90;;;;;;4959776;28;20170;-79
2021/10/26 00:41:25;;;;;;;14.82;9.85;;;10.10;99.90;;;;;;4970741;28;20075;-78
2021/10/26 00:43:51;;;;;;;15.55;9.98;;;10.10;99.90;;;;;;4959865;28;20134;-79
2021/10/26 00:46:31;;;;;;;19.67;11.50;;;10.00;99.90;;;;;;4968252;28;20121;-79
2021/10/26 00:49:02;;;;;;;22.23;14.23;;;10.00;99.90;;;;;;4972461;28;20130;-78
2021/10/26 00:51:29;;;;;;;23.27;14.27;;;10.00;99.90;;;;;;4971011;28;20129;-78
2021/10/26 00:53:56;;;;;;;24.05;15.88;;;10.00;99.90;;;;;;4968762;28;20034;-78
2021/10/26 00:56:23;;;;;;;30.90;18.48;;;10.00;99.90;;;;;;4969538;28;20117;-79
2021/10/26 00:58:49;;;;;;;37.05;21.88;;;10.10;99.90;;;;;;4953373;28;20038;-79
2021/10/26 01:01:15;;;;;;;43.40;22.90;;;10.00;99.90;;;;;;4955733;28;20034;-78
2021/10/26 01:03:41;;;;;;;40.72;25.40;;;10.10;99.90;;;;;;4968453;28;20060;-79
2021/10/26 01:06:07;;;;;;;52.58;30.00;;;10.10;99.90;;;;;;4952059;28;20149;-78
2021/10/26 01:08:33;;;;;;;67.75;32.65;;;10.20;99.90;;;;;;4965545;28;20509;-79
2021/10/26 01:11:00;;;;;;;73.65;35.90;;;10.20;99.90;;;;;;4972302;28;20041;-80
2021/10/26 01:13:27;;;;;;;83.93;38.90;;;10.30;99.90;;;;;;4957191;28;20058;-80
2021/10/26 01:15:56;;;;;;;99.55;41.92;;;10.30;99.90;;;;;;4982139;28;20050;-79
2021/10/26 01:18:21;;;;;;;83.25;44.25;;;10.40;99.90;;;;;;4967734;28;20055;-79
2021/10/26 01:20:47;;;;;;;100.18;46.45;;;10.40;99.90;;;;;;4968794;28;20054;-81
2021/10/26 01:23:14;;;;;;;94.65;46.63;;;10.50;99.90;;;;;;4961914;28;20439;-81
2021/10/26 01:25:40;;;;;;;107.93;47.38;;;10.60;99.90;;;;;;4934511;28;20089;-78
2021/10/26 01:28:06;;;;;;;105.88;48.95;;;10.60;99.90;;;;;;4985490;28;20047;-81
2021/10/26 01:30:34;;;;;;;104.30;48.22;;;10.60;99.90;;;;;;4961666;28;20047;-81
2021/10/26 01:33:01;;;;;;;116.22;49.92;;;10.60;99.90;;;;;;4969090;28;20455;-80
2021/10/26 01:35:26;;;;;;;109.28;48.63;;;10.60;99.90;;;;;;4967992;28;20129;-79
2021/10/26 01:37:52;;;;;;;105.38;47.55;;;10.60;99.90;;;;;;4953332;28;20125;-80
2021/10/26 01:40:18;;;;;;;104.05;48.15;;;10.50;99.90;;;;;;4970294;28;20092;-78
2021/10/26 01:42:44;;;;;;;119.38;50.78;;;10.50;99.90;;;;;;4954052;28;20046;-80
2021/10/26 01:45:11;;;;;;;104.30;47.47;;;10.50;99.90;;;;;;4970183;28;20042;-79
2021/10/26 01:47:37;;;;;;;106.95;49.05;;;10.50;99.90;;;;;;4965891;28;20390;-80
2021/10/26 01:50:09;;;;;;;116.10;48.83;;;10.40;99.90;;;;;;4967647;28;20050;-78
2021/10/26 01:52:35;;;;;;;117.20;49.28;;;10.40;99.90;;;;;;4973485;28;20478;-79
2021/10/26 01:55:01;;;;;;;121.47;50.13;;;10.30;99.90;;;;;;4951272;28;20361;-80
2021/10/26 01:57:27;;;;;;;114.88;50.17;;;10.30;99.90;;;;;;4951746;28;20046;-80
2021/10/26 01:59:55;;;;;;;107.80;49.60;;;10.30;99.90;;;;;;4971549;28;20398;-80
2021/10/26 02:02:22;;;;;;;117.53;50.40;;;10.30;99.90;;;;;;4973066;28;20034;-78
2021/10/26 02:04:48;;;;;;;127.72;50.42;;;10.20;99.90;;;;;;4972951;28;20133;-79
2021/10/26 02:07:13;;;;;;;121.93;50.70;;;10.20;99.90;;;;;;4969010;28;20122;-79
2021/10/26 02:09:39;;;;;;;123.40;49.88;;;10.30;99.90;;;;;;4968819;28;20138;-80
2021/10/26 02:12:05;;;;;;;121.78;51.58;;;10.30;99.90;;;;;;4978879;28;20389;-79
2021/10/26 02:14:32;;;;;;;118.90;51.03;;;10.30;99.90;;;;;;4975036;28;20474;-80
2021/10/26 02:16:58;;;;;;;121.32;49.80;;;10.30;99.90;;;;;;4985123;28;20050;-80
2021/10/26 02:19:24;;;;;;;122.93;50.47;;;10.40;99.90;;;;;;4975965;28;20046;-78
2021/10/26 02:21:49;;;;;;;121.15;50.95;;;10.40;99.90;;;;;;4973007;28;20394;-78
2021/10/26 02:24:15;;;;;;;140.68;52.20;;;10.40;99.90;;;;;;4956748;28;20049;-80
2021/10/26 02:26:41;;;;;;;122.85;51.05;;;10.50;99.90;;;;;;4968560;28;20042;-80
2021/10/26 02:29:06;;;;;;;125.20;51.30;;;10.50;99.90;;;;;;4989626;28;20046;-78
2021/10/26 02:31:32;;;;;;;107.32;48.85;;;10.30;99.90;;;;;;4965472;28;20035;-78
2021/10/26 02:33:57;;;;;;;115.75;49.00;;;10.30;99.90;;;;;;4969071;28;20038;-79
2021/10/26 02:36:23;;;;;;;106.28;48.50;;;10.30;99.90;;;;;;4968405;28;20391;-80
2021/10/26 02:38:49;;;;;;;116.45;48.47;;;10.30;99.90;;;;;;4966033;28;20045;-79
2021/10/26 02:41:14;;;;;;;108.45;46.72;;;10.20;99.90;;;;;;4975072;28;20376;-79
2021/10/26 02:43:40;;;;;;;111.10;47.28;;;10.30;99.90;;;;;;4971413;28;20054;-81
2021/10/26 02:46:06;;;;;;;112.97;47.05;;;10.30;99.90;;;;;;4955829;28;20092;-79
2021/10/26 02:48:32;;;;;;;106.25;46.33;;;10.20;99.90;;;;;;4968471;28;20038;-80
2021/10/26 02:50:58;;;;;;;104.90;47.90;;;10.10;99.90;;;;;;4970184;28;20045;-78
2021/10/26 02:53:25;;;;;;;99.80;44.05;;;10.10;99.90;;;;;;4971519;28;21653;-80
2021/10/26 02:55:51;;;;;;;105.88;45.10;;;10.10;99.90;;;;;;4967794;28;20045;-80
2021/10/26 02:58:20;;;;;;;121.38;46.58;;;10.00;99.90;;;;;;4968433;28;20046;-79
2021/10/26 03:00:46;;;;;;;104.03;46.05;;;9.90;99.90;;;;;;4972507;28;20061;-79
2021/10/26 03:03:13;;;;;;;104.65;44.55;;;10.00;99.90;;;;;;4956536;28;20389;-79
2021/10/26 03:05:39;;;;;;;110.53;45.38;;;10.00;99.90;;;;;;4969872;28;20118;-79
2021/10/26 03:08:05;;;;;;;112.38;43.67;;;9.90;99.90;;;;;;4976792;28;20421;-78
2021/10/26 03:10:31;;;;;;;111.20;45.83;;;9.90;99.90;;;;;;4969265;28;20049;-80
2021/10/26 03:12:56;;;;;;;118.32;46.63;;;10.00;99.90;;;;;;4973176;28;20358;-78
2021/10/26 03:15:22;;;;;;;103.68;45.45;;;10.00;99.90;;;;;;4970875;28;20062;-79
2021/10/26 03:17:48;;;;;;;114.65;46.92;;;10.00;99.90;;;;;;4957652;28;20414;-78
2021/10/26 03:20:13;;;;;;;106.10;46.22;;;10.00;99.90;;;;;;4966347;28;20039;-79
2021/10/26 03:22:39;;;;;;;107.30;45.17;;;9.90;99.90;;;;;;4951327;28;20043;-80
2021/10/26 03:25:06;;;;;;;118.55;46.53;;;9.90;99.90;;;;;;4969875;28;20047;-81
2021/10/26 03:27:32;;;;;;;109.90;46.03;;;9.90;99.90;;;;;;4974127;28;20438;-81
2021/10/26 03:29:58;;;;;;;109.72;45.42;;;10.00;99.90;;;;;;4979583;28;20524;-80
2021/10/26 03:32:24;;;;;;;110.70;45.88;;;9.80;99.90;;;;;;4992990;28;20054;-82
2021/10/26 03:34:50;;;;;;;124.72;47.28;;;9.80;99.90;;;;;;4971252;28;20513;-81
2021/10/26 03:37:15;;;;;;;114.10;46.22;;;9.70;99.90;;;;;;4964002;28;20030;-82
2021/10/26 03:39:41;;;;;;;95.95;44.38;;;9.70;99.90;;;;;;4960758;28;20370;-82
2021/10/26 03:42:08;;;;;;;105.25;42.90;;;9.70;99.90;;;;;;4976747;28;20062;-79
2021/10/26 03:44:34;;;;;;;83.63;40.78;;;9.60;99.90;;;;;;4973826;28;20042;-80
2021/10/26 03:47:00;;;;;;;78.63;40.50;;;9.60;99.90;;;;;;4958905;28;20166;-79
2021/10/26 03:49:26;;;;;;;109.22;43.20;;;9.60;99.90;;;;;;4975569;28;20537;-79
2021/10/26 03:51:51;;;;;;;98.88;43.20;;;9.60;99.90;;;;;;4961954;28;20069;-78
2021/10/26 03:54:17;;;;;;;94.15;41.38;;;9.50;99.90;;;;;;4970657;28;20074;-80
2021/10/26 03:56:43;;;;;;;107.40;42.25;;;9.60;99.90;;;;;;4972064;28;20046;-79
2021/10/26 03:59:10;;;;;;;106.35;41.90;;;9.60;99.90;;;;;;4973882;28;20038;-79
2021/10/26 04:01:36;;;;;;;81.53;37.75;;;9.50;99.90;;;;;;4970466;28;20536;-79
2021/10/26 04:04:03;;;;;;;68.07;35.47;;;9.50;99.90;;;;;;4974363;28;20049;-79
2021/10/26 04:06:29;;;;;;;79.18;37.38;;;9.40;99.90;;;;;;4969344;28;20053;-79
2021/10/26 04:08:58;;;;;;;85.32;38.08;;;9.40;99.90;;;;;;4974507;28;20371;-79
2021/10/26 04:11:25;;;;;;;87.68;38.50;;;9.40;99.90;;;;;;4969626;28;20046;-78
2021/10/26 04:13:52;;;;;;;91.88;38.83;;;9.50;99.90;;;;;;4968142;28;20047;-80
2021/10/26 04:16:19;;;;;;;87.18;38.17;;;9.50;99.90;;;;;;4973856;28;20042;-79
2021/10/26 04:18:45;;;;;;;72.47;34.63;;;9.50;99.90;;;;;;4973128;28;20041;-78
2021/10/26 04:21:12;;;;;;;74.03;33.92;;;9.40;99.90;;;;;;4968611;28;20096;-79
2021/10/26 04:23:38;;;;;;;69.65;33.03;;;9.40;99.90;;;;;;4970131;28;20126;-80
2021/10/26 04:26:06;;;;;;;65.53;33.45;;;9.40;99.90;;;;;;4969004;28;20129;-79
2021/10/26 04:28:33;;;;;;;70.93;30.92;;;9.50;99.90;;;;;;4985494;28;20038;-79
2021/10/26 04:31:01;;;;;;;64.68;30.55;;;9.50;99.90;;;;;;4968403;28;20089;-80
2021/10/26 04:33:27;;;;;;;72.03;30.70;;;9.40;99.90;;;;;;4969486;28;20141;-79
2021/10/26 04:35:53;;;;;;;54.75;28.23;;;9.40;99.90;;;;;;4971363;28;20050;-79
2021/10/26 04:38:19;;;;;;;62.65;29.52;;;9.40;99.90;;;;;;4961661;28;20108;-79
2021/10/26 04:40:46;;;;;;;57.33;27.95;;;9.30;99.90;;;;;;4960074;28;20201;-78
2021/10/26 04:43:13;;;;;;;68.30;28.67;;;9.30;99.90;;;;;;4972957;28;20130;-79
2021/10/26 04:45:39;;;;;;;48.42;26.13;;;9.30;99.90;;;;;;4968494;28;20077;-79
2021/10/26 04:48:12;;;;;;;39.25;22.85;;;9.20;99.90;;;;;;4954908;28;20077;-78
2021/10/26 04:50:37;;;;;;;46.67;25.08;;;9.20;99.90;;;;;;4971494;28;20046;-81
2021/10/26 04:53:03;;;;;;;50.25;24.65;;;9.10;99.90;;;;;;4971341;28;20034;-81
2021/10/26 04:55:28;;;;;;;55.65;26.35;;;9.10;99.90;;;;;;4968513;28;20141;-78
2021/10/26 04:57:54;;;;;;;47.55;25.08;;;9.10;99.90;;;;;;4972489;28;20074;-80
2021/10/26 05:00:20;;;;;;;48.75;25.35;;;9.10;99.90;;;;;;4972190;28;20480;-80
2021/10/26 05:02:46;;;;;;;55.60;26.42;;;9.00;99.90;;;;;;4979503;28;20030;-78
2021/10/26 05:05:12;;;;;;;59.50;25.63;;;9.00;99.90;;;;;;4975057;28;20073;-81
2021/10/26 05:07:37;;;;;;;56.47;24.55;;;9.00;99.90;;;;;;4973345;28;20130;-79
2021/10/26 05:10:04;;;;;;;46.70;24.70;;;9.10;99.90;;;;;;4976705;28;20057;-79
2021/10/26 05:12:30;;;;;;;46.92;25.65;;;8.90;99.90;;;;;;4969449;28;20085;-78
2021/10/26 05:14:55;;;;;;;56.30;25.90;;;8.90;99.90;;;;;;4968427;28;20434;-79
2021/10/26 05:17:23;;;;;;;65.13;27.48;;;9.00;99.90;;;;;;4961512;28;20445;-81
2021/10/26 05:19:51;;;;;;;72.32;29.95;;;9.00;99.90;;;;;;4968812;28;20057;-81
2021/10/26 05:22:22;;;;;;;81.05;31.05;;;9.00;99.90;;;;;;4968361;28;20049;-79
2021/10/26 05:24:48;;;;;;;75.25;30.88;;;9.10;99.90;;;;;;4972980;28;20236;-80
2021/10/26 05:27:14;;;;;;;78.45;32.83;;;9.20;99.90;;;;;;4971325;28;20233;-81
2021/10/26 05:29:40;;;;;;;78.07;33.60;;;9.20;99.90;;;;;;4973574;28;20470;-82
2021/10/26 05:32:08;;;;;;;93.70;35.63;;;9.20;99.90;;;;;;4958341;28;20079;-80
2021/10/26 05:34:39;;;;;;;97.93;37.30;;;9.30;99.90;;;;;;4970839;28;20057;-80
2021/10/26 05:37:05;;;;;;;103.35;38.50;;;9.30;99.90;;;;;;4968610;28;20046;-77
2021/10/26 05:39:31;;;;;;;105.50;38.85;;;9.40;99.90;;;;;;4975958;28;20081;-79
2021/10/26 05:41:58;;;;;;;102.40;38.25;;;9.40;99.90;;;;;;4973010;28;20034;-77
2021/10/26 05:44:24;;;;;;;109.28;39.88;;;9.40;99.90;;;;;;4970919;28;20061;-77
2021/10/26 05:46:49;;;;;;;157.25;42.40;;;9.50;99.90;;;;;;4954855;28;20034;-78
2021/10/26 05:49:15;;;;;;;180.30;43.95;;;9.50;99.90;;;;;;4969343;28;20034;-80
2021/10/26 05:51:41;;;;;;;176.77;44.72;;;9.50;99.90;;;;;;4967806;28;20153;-80
2021/10/26 05:54:06;;;;;;;151.60;45.00;;;9.60;99.90;;;;;;4986944;28;20074;-80
2021/10/26 05:56:32;;;;;;;142.60;42.55;;;9.50;99.90;;;;;;4973288;28;20103;-77
2021/10/26 05:58:58;;;;;;;129.90;42.72;;;9.60;99.90;;;;;;4972316;28;20046;-79
2021/10/26 06:01:23;;;;;;;173.20;46.55;;;9.70;99.90;;;;;;4971997;28;20043;-79
2021/10/26 06:03:50;;;;;;;167.52;45.53;;;9.60;99.90;;;;;;4979559;28;20136;-78
2021/10/26 06:06:16;;;;;;;171.60;47.22;;;9.70;99.90;;;;;;4972649;28;20069;-79
2021/10/26 06:08:42;;;;;;;167.30;50.08;;;9.60;99.90;;;;;;4958922;28;20198;-77
2021/10/26 06:11:11;;;;;;;163.75;45.85;;;9.60;99.90;;;;;;4972171;28;20042;-80
2021/10/26 06:13:42;;;;;;;209.13;48.28;;;9.70;99.90;;;;;;4990062;28;20049;-81
2021/10/26 06:16:08;;;;;;;174.60;46.20;;;9.70;99.90;;;;;;4974251;28;20031;-79
2021/10/26 06:18:34;;;;;;;176.75;47.22;;;9.70;99.90;;;;;;4970810;28;20049;-79
2021/10/26 06:21:00;;;;;;;170.45;47.15;;;9.70;99.90;;;;;;4967684;28;20039;-79
2021/10/26 06:23:26;;;;;;;152.63;45.88;;;9.70;99.90;;;;;;4968418;28;20508;-77
2021/10/26 06:25:51;;;;;;;157.82;45.03;;;9.70;99.90;;;;;;4965315;28;20038;-78
2021/10/26 06:28:17;;;;;;;140.85;43.33;;;9.70;99.90;;;;;;4970357;28;20057;-80
2021/10/26 06:30:44;;;;;;;137.20;43.40;;;9.70;99.90;;;;;;4966638;28;20469;-80
2021/10/26 06:33:10;;;;;;;136.35;44.33;;;9.70;99.90;;;;;;4966855;28;20042;-80
2021/10/26 06:35:37;;;;;;;140.32;44.13;;;9.70;99.90;;;;;;4968353;28;20062;-80
2021/10/26 06:38:03;;;;;;;156.18;45.80;;;9.80;99.90;;;;;;4966027;28;20081;-81
2021/10/26 06:40:28;;;;;;;140.93;44.17;;;9.90;99.90;;;;;;4966498;28;20490;-79
2021/10/26 06:42:55;;;;;;;132.77;44.35;;;9.80;99.90;;;;;;4983542;28;20050;-78
2021/10/26 06:45:21;;;;;;;124.93;43.00;;;9.80;99.90;;;;;;4987187;28;20047;-78
2021/10/26 06:47:47;;;;;;;136.15;45.33;;;9.80;99.90;;;;;;4975119;28;20101;-82
2021/10/26 06:50:12;;;;;;;132.63;43.22;;;9.80;99.90;;;;;;4992479;28;20030;-80
2021/10/26 06:52:39;;;;;;;129.18;43.78;;;9.90;99.90;;;;;;4986714;28;20046;-80
2021/10/26 06:55:06;;;;;;;49.47;25.15;;;9.90;99.90;;;;;;4987463;28;20054;-78
2021/10/26 06:57:32;;;;;;;55.92;31.30;;;10.50;99.90;;;;;;4973723;28;20076;-77
2021/10/26 06:59:58;;;;;;;80.80;36.58;;;10.70;99.90;;;;;;4970942;28;20385;-79
2021/10/26 07:02:23;;;;;;;93.45;38.58;;;10.50;99.90;;;;;;4973658;28;20039;-81
2021/10/26 07:04:49;;;;;;;107.28;39.38;;;10.40;99.90;;;;;;4971783;28;20039;-81
2021/10/26 07:07:15;;;;;;;102.43;37.88;;;10.40;99.90;;;;;;4961759;28;20046;-79
2021/10/26 07:09:41;;;;;;;106.10;39.38;;;10.40;99.90;;;;;;4972660;28;20073;-79
2021/10/26 07:12:07;;;;;;;101.25;38.92;;;10.40;99.90;;;;;;4971520;28;20085;-77
2021/10/26 07:14:32;;;;;;;102.05;38.20;;;10.40;99.90;;;;;;4984056;28;20056;-78
2021/10/26 07:16:58;;;;;;;102.15;39.88;;;10.40;99.90;;;;;;4959350;28;20101;-80
2021/10/26 07:19:24;;;;;;;106.43;39.38;;;10.40;99.90;;;;;;4976039;28;20043;-76
2021/10/26 07:21:50;;;;;;;100.43;39.58;;;10.50;99.90;;;;;;4973354;28;20058;-78
2021/10/26 07:24:16;;;;;;;113.20;40.08;;;10.50;99.90;;;;;;4970049;28;20109;-79
2021/10/26 07:26:42;;;;;;;115.28;41.47;;;10.50;99.90;;;;;;4971861;28;20125;-80
2021/10/26 07:29:08;;;;;;;103.70;40.40;;;10.60;99.90;;;;;;4975273;28;20162;-80
2021/10/26 07:31:34;;;;;;;113.88;39.95;;;10.50;99.90;;;;;;4970602;28;20054;-78
2021/10/26 07:34:00;;;;;;;100.75;40.25;;;10.70;99.90;;;;;;4972708;28;20715;-80
2021/10/26 07:36:39;;;;;;;106.10;40.35;;;10.70;99.90;;;;;;4972800;28;20505;-80
2021/10/26 07:39:09;;;;;;;97.93;38.63;;;10.70;99.90;;;;;;4972880;28;20065;-76
2021/10/26 07:41:35;;;;;;;101.97;38.75;;;10.70;99.90;;;;;;4969927;28;20053;-79
2021/10/26 07:44:00;;;;;;;92.85;38.67;;;10.80;99.90;;;;;;4968871;28;20058;-82
2021/10/26 07:46:26;;;;;;;96.93;38.47;;;10.70;99.90;;;;;;4969476;28;20386;-81
2021/10/26 07:48:52;;;;;;;81.07;36.40;;;10.80;99.90;;;;;;4972080;28;20069;-81
2021/10/26 07:51:17;;;;;;;84.75;36.72;;;10.70;99.90;;;;;;4955144;28;20482;-78
2021/10/26 07:53:43;;;;;;;90.90;35.22;;;10.80;99.90;;;;;;4971618;28;20050;-79
2021/10/26 07:56:10;;;;;;;79.32;34.50;;;10.90;99.90;;;;;;4955581;28;20069;-82
2021/10/26 07:58:39;;;;;;;81.78;34.17;;;10.90;99.90;;;;;;4971670;28;20054;-80
2021/10/26 08:01:04;;;;;;;73.18;33.10;;;10.90;99.90;;;;;;4972021;28;20053;-80
2021/10/26 08:03:30;;;;;;;75.93;34.08;;;10.90;99.90;;;;;;4971455;28;20034;-79
2021/10/26 08:05:56;;;;;;;77.05;33.55;;;10.80;99.90;;;;;;4970381;28;20077;-80
2021/10/26 08:08:22;;;;;;;70.53;33.33;;;10.80;99.90;;;;;;4974036;28;20046;-83
2021/10/26 08:10:48;;;;;;;75.15;32.45;;;10.80;99.90;;;;;;4978282;28;20054;-81
2021/10/26 08:13:14;;;;;;;82.15;34.03;;;10.80;99.90;;;;;;4971543;28;20053;-85
2021/10/26 08:15:40;;;;;;;64.03;30.73;;;10.80;99.90;;;;;;4973553;28;20046;-80
2021/10/26 08:18:07;;;;;;;80.35;32.55;;;10.80;99.90;;;;;;4968676;28;20514;-80
2021/10/26 08:20:32;;;;;;;71.47;32.00;;;10.90;99.90;;;;;;4977365;28;20030;-77
2021/10/26 08:22:58;;;;;;;71.53;31.85;;;10.70;99.90;;;;;;4964801;28;20051;-85
2021/10/26 08:25:27;;;;;;;67.68;32.08;;;10.80;99.90;;;;;;4968838;28;20105;-79
2021/10/26 08:27:56;;;;;;;69.93;29.55;;;10.80;99.90;;;;;;4986281;28;20069;-80
2021/10/26 08:35:32;;;;;;;59.97;29.50;;;10.90;99.90;;;;;;4974657;28;20126;-79
2021/10/26 08:38:04;;;;;;;66.28;29.65;;;11.00;99.90;;;;;;4958359;28;20050;-78
2021/10/26 08:40:31;;;;;;;68.20;29.52;;;11.00;99.90;;;;;;4975328;28;20050;-81
2021/10/26 08:43:02;;;;;;;69.47;29.70;;;11.10;99.90;;;;;;4974746;28;20070;-80
2021/10/26 08:45:29;;;;;;;62.03;29.15;;;11.20;99.90;;;;;;4958052;28;20046;-78
2021/10/26 08:47:55;;;;;;;57.47;29.35;;;11.30;99.90;;;;;;4990593;28;20054;-81
2021/10/26 08:50:21;;;;;;;61.75;27.50;;;11.30;99.90;;;;;;4977450;28;20061;-81
2021/10/26 08:52:49;;;;;;;56.28;25.98;;;11.30;99.90;;;;;;4983120;28;20046;-79
2021/10/26 08:55:17;;;;;;;56.10;26.13;;;11.40;99.90;;;;;;4973951;28;20556;-79
2021/10/26 08:57:43;;;;;;;54.40;26.30;;;11.40;99.90;;;;;;4956978;28;20062;-80
2021/10/26 09:00:09;;;;;;;43.72;25.20;;;11.40;99.90;;;;;;4959399;28;20042;-79
2021/10/26 09:02:47;;;;;;;57.33;25.58;;;11.50;99.90;;;;;;4973152;28;20042;-81
2021/10/26 09:05:19;;;;;;;51.15;24.40;;;11.50;99.90;;;;;;4957660;28;20447;-81
2021/10/26 09:07:59;;;;;;;45.80;23.90;;;11.50;99.90;;;;;;4973241;28;20045;-80
2021/10/26 09:10:29;;;;;;;45.38;22.35;;;11.60;99.90;;;;;;4972925;28;20180;-79
2021/10/26 09:18:47;;;;;;;47.10;22.23;;;11.70;99.90;;;;;;4971485;28;20083;-81
2021/10/26 09:21:30;;;;;;;46.88;22.35;;;11.70;99.90;;;;;;4970843;28;20105;-80
2021/10/26 09:24:00;;;;;;;49.35;22.08;;;11.80;99.90;;;;;;4969717;28;20405;-83
2021/10/26 09:26:43;;;;;;;50.67;22.05;;;11.90;99.90;;;;;;4968093;28;20084;-79
2021/10/26 09:29:09;;;;;;;45.35;19.90;;;11.90;99.90;;;;;;4997530;28;20081;-80
2021/10/26 09:31:38;;;;;;;44.92;20.73;;;11.90;99.90;;;;;;4991771;28;20042;-80
2021/10/26 09:34:11;;;;;;;41.60;19.83;;;12.00;99.90;;;;;;4973183;28;20422;-81
2021/10/26 09:36:39;;;;;;;41.05;18.67;;;12.10;99.90;;;;;;4962817;28;20039;-81
2021/10/26 09:39:05;;;;;;;44.40;20.42;;;12.10;99.90;;;;;;4974536;28;20454;-81
2021/10/26 09:41:32;;;;;;;35.85;18.90;;;12.20;99.90;;;;;;4968520;28;20050;-79
2021/10/26 09:44:13;;;;;;;38.83;19.63;;;12.30;99.90;;;;;;4974526;28;20046;-77
2021/10/26 09:47:00;;;;;;;41.83;19.00;;;12.30;99.90;;;;;;4975307;28;20088;-78
2021/10/26 09:49:39;;;;;;;37.20;19.30;;;12.30;99.90;;;;;;4939336;28;20054;-79
2021/10/26 09:52:11;;;;;;;39.28;19.23;;;12.30;99.90;;;;;;4979315;28;20073;-79
2021/10/26 09:54:40;;;;;;;32.65;16.10;;;12.30;99.90;;;;;;4969550;28;20181;-78
2021/10/26 09:57:07;;;;;;;31.98;14.93;;;12.40;99.90;;;;;;4969002;28;20046;-77
2021/10/26 09:59:44;;;;;;;33.65;15.68;;;12.50;99.90;;;;;;4970432;28;20059;-77
2021/10/26 10:02:09;;;;;;;32.72;15.40;;;12.50;99.90;;;;;;4974107;28;20462;-80
2021/10/26 10:04:35;;;;;;;34.78;15.73;;;12.60;99.90;;;;;;4980683;28;20046;-80
2021/10/26 10:07:01;;;;;;;31.48;13.05;;;12.70;99.90;;;;;;4965783;28;20051;-80
2021/10/26 10:09:28;;;;;;;33.33;14.35;;;12.80;99.90;;;;;;4972112;28;20034;-79
2021/10/26 10:12:07;;;;;;;31.67;13.85;;;12.80;99.90;;;;;;4961101;28;20058;-79
2021/10/26 10:14:34;;;;;;;36.40;15.23;;;12.80;99.90;;;;;;4961219;28;20050;-80
2021/10/26 10:17:03;;;;;;;30.15;14.73;;;12.90;99.90;;;;;;4966825;28;20142;-79
2021/10/26 10:19:29;;;;;;;33.17;15.52;;;12.90;99.90;;;;;;4967288;28;20049;-80
2021/10/26 10:21:56;;;;;;;32.80;16.33;;;12.90;99.90;;;;;;4973857;28;20501;-80
2021/10/26 10:24:22;;;;;;;31.52;15.07;;;13.00;99.90;;;;;;4977863;28;20151;-80
2021/10/26 10:26:52;;;;;;;26.60;14.38;;;13.00;99.90;;;;;;4982506;28;20137;-80
2021/10/26 10:29:20;;;;;;;30.65;13.82;;;12.90;99.90;;;;;;4975344;28;20044;-78
2021/10/26 10:31:49;;;;;;;33.05;15.43;;;12.80;99.90;;;;;;4955731;28;20061;-78
2021/10/26 10:34:19;;;;;;;32.05;14.80;;;12.70;99.90;;;;;;4955243;28;20050;-78
2021/10/26 10:36:46;;;;;;;30.85;14.80;;;12.70;99.90;;;;;;4953483;28;20042;-80
2021/10/26 10:39:24;;;;;;;30.58;13.80;;;12.80;99.90;;;;;;4975917;28;20046;-82
2021/10/26 11:08:48;;;;;;;33.30;14.15;;;13.20;99.90;;;;;;4768394;30;20056;-80
2021/10/26 11:11:18;;;;;;;33.00;14.20;;;13.30;99.90;;;;;;4785443;29;20062;-80
2021/10/26 11:14:35;;;;;;;28.83;13.85;;;13.40;99.90;;;;;;4805626;29;20058;-78
2021/10/26 11:17:39;;;;;;;27.88;14.02;;;13.50;99.90;;;;;;4806008;29;20051;-80
2021/10/26 11:20:07;;;;;;;26.77;13.13;;;13.50;99.90;;;;;;4834583;29;20147;-78
2021/10/26 11:23:02;;;;;;;27.10;12.88;;;13.60;99.90;;;;;;4851958;29;20053;-80
2021/10/26 11:25:28;;;;;;;28.40;13.45;;;13.60;99.90;;;;;;4858564;29;20049;-76
2021/10/26 11:27:58;;;;;;;28.88;12.23;;;13.70;99.90;;;;;;4843600;29;20064;-82
2021/10/26 11:30:27;;;;;;;29.80;11.77;;;13.70;99.90;;;;;;4875150;29;20061;-80
2021/10/26 11:33:16;;;;;;;23.52;11.50;;;13.80;99.90;;;;;;4827333;29;20065;-82
2021/10/26 11:35:53;;;;;;;21.33;10.55;;;13.80;99.90;;;;;;4834086;29;20061;-76
2021/10/26 11:38:24;;;;;;;28.77;11.15;;;13.90;99.90;;;;;;4835218;29;20143;-79
2021/10/26 11:41:00;;;;;;;21.38;10.63;;;13.90;99.90;;;;;;4862849;29;20060;-79
2021/10/26 11:43:45;;;;;;;25.35;10.48;;;13.90;99.90;;;;;;4862615;29;20064;-78
2021/10/26 11:46:19;;;;;;;26.75;10.23;;;14.00;99.90;;;;;;4911142;29;20106;-78
2021/10/26 11:48:49;;;;;;;23.08;9.40;;;13.90;99.90;;;;;;4902067;29;20048;-80
2021/10/26 11:51:17;;;;;;;24.33;9.20;;;13.90;99.90;;;;;;4917796;29;20068;-78
2021/10/26 11:53:43;;;;;;;25.65;9.38;;;13.80;99.90;;;;;;4920847;28;20447;-79
2021/10/26 11:56:26;;;;;;;24.63;9.63;;;13.80;99.90;;;;;;4958542;28;20061;-81
2021/10/26 11:58:56;;;;;;;20.92;10.02;;;13.60;99.90;;;;;;4968474;28;20109;-81
2021/10/26 12:01:33;;;;;;;20.17;9.20;;;13.60;99.90;;;;;;4956263;28;20401;-80
2021/10/26 12:04:36;;;;;;;23.70;9.57;;;13.60;99.90;;;;;;4957547;28;20118;-80
2021/10/26 12:07:51;;;;;;;26.13;9.13;;;13.60;99.90;;;;;;4987892;28;20052;-79
2021/10/26 12:10:24;;;;;;;20.35;9.48;;;13.70;99.90;;;;;;4896218;29;20139;-79
2021/10/26 12:12:53;;;;;;;26.13;9.27;;;13.80;99.90;;;;;;4890616;29;20526;-79
2021/10/26 12:15:19;;;;;;;20.63;9.65;;;13.90;99.90;;;;;;4911241;29;20076;-82
2021/10/26 12:17:44;;;;;;;21.90;9.40;;;13.70;99.90;;;;;;4900643;29;20079;-81
2021/10/26 12:20:20;;;;;;;20.65;9.40;;;13.60;99.90;;;;;;4915203;29;20060;-81
2021/10/26 12:22:51;;;;;;;21.67;9.52;;;13.60;99.90;;;;;;4882486;29;20056;-82
2021/10/26 12:25:23;;;;;;;22.30;9.90;;;13.60;99.90;;;;;;4927347;29;20131;-78
2021/10/26 12:28:00;;;;;;;20.02;9.50;;;13.50;99.90;;;;;;4899700;29;20380;-77
2021/10/26 12:30:36;;;;;;;22.88;9.68;;;13.50;99.90;;;;;;4895439;29;20145;-78
2021/10/26 12:33:06;;;;;;;27.88;10.02;;;13.40;99.90;;;;;;4914370;29;20610;-77
2021/10/26 12:35:42;;;;;;;23.70;9.93;;;13.40;99.90;;;;;;4914421;29;20060;-78
2021/10/26 12:38:26;;;;;;;25.58;10.57;;;13.40;99.90;;;;;;4896512;29;20496;-79
2021/10/26 12:41:15;;;;;;;20.92;9.68;;;13.40;99.90;;;;;;4896467;29;20524;-80
2021/10/26 12:44:03;;;;;;;24.88;9.98;;;13.40;99.90;;;;;;4897057;29;20464;-78
2021/10/26 12:46:29;;;;;;;23.95;9.70;;;13.40;99.90;;;;;;4968804;28;20046;-81
2021/10/26 12:49:15;;;;;;;24.67;9.80;;;13.50;99.90;;;;;;4994789;28;20382;-82
2021/10/26 12:51:44;;;;;;;21.17;9.18;;;13.40;99.90;;;;;;4963764;28;20497;-83
2021/10/26 12:54:13;;;;;;;21.42;9.45;;;13.40;99.90;;;;;;4974586;28;20046;-78
2021/10/26 12:56:46;;;;;;;24.48;9.63;;;13.40;99.90;;;;;;4966759;28;20042;-80
2021/10/26 12:59:17;;;;;;;20.02;10.07;;;13.50;99.90;;;;;;4955461;28;20069;-82
2021/10/26 13:01:46;;;;;;;22.63;10.07;;;13.40;99.90;;;;;;4985686;28;20051;-79
2021/10/26 13:04:24;;;;;;;20.30;10.23;;;13.50;99.90;;;;;;4948844;28;20117;-81
2021/10/26 13:07:00;;;;;;;23.27;10.32;;;13.60;99.90;;;;;;4970119;28;20068;-81
2021/10/26 13:09:42;;;;;;;23.30;10.85;;;13.70;99.90;;;;;;4988294;28;20046;-80
2021/10/26 13:12:30;;;;;;;23.30;9.70;;;13.90;99.90;;;;;;4985646;28;20057;-79